createdAt,value
2023-06-17T00:01:19.557Z,59.54
2023-06-17T00:03:47.339Z,59.68
2023-06-17T00:06:14.910Z,59.52
2023-06-17T00:08:42.345Z,59.62
2023-06-17T00:11:09.795Z,59.60
2023-06-17T00:13:38.589Z,59.63
2023-06-17T00:16:07.557Z,59.79
2023-06-17T00:18:35.094Z,59.82
2023-06-17T00:21:04.127Z,59.97
2023-06-17T00:23:32.289Z,59.92
2023-06-17T00:25:59.758Z,59.87
2023-06-17T00:28:27.279Z,59.96
2023-06-17T00:30:54.724Z,59.87
2023-06-17T00:33:23.698Z,59.88
2023-06-17T00:35:52.908Z,59.89
2023-06-17T00:38:21.736Z,59.99
2023-06-17T00:40:49.205Z,59.98
2023-06-17T00:43:16.645Z,60.17
2023-06-17T00:45:44.350Z,60.19
2023-06-17T00:48:12.047Z,60.26
2023-06-17T00:50:39.977Z,60.33
2023-06-17T00:53:07.670Z,60.32
2023-06-17T00:55:35.189Z,60.30
2023-06-17T00:58:02.762Z,60.19
2023-06-17T01:00:30.356Z,60.18
2023-06-17T01:02:58.364Z,60.33
2023-06-17T01:05:26.407Z,60.22
2023-06-17T01:08:04.989Z,60.10
2023-06-17T01:10:45.349Z,59.98
2023-06-17T01:13:13.402Z,59.44
2023-06-17T01:15:41.221Z,59.17
2023-06-17T01:18:09.206Z,58.96
2023-06-17T01:20:40.737Z,58.85
2023-06-17T01:23:08.590Z,58.73
2023-06-17T01:25:36.786Z,58.73
2023-06-17T01:28:18.802Z,58.60
2023-06-17T01:30:48.544Z,58.41
2023-06-17T01:33:16.255Z,58.52
2023-06-17T01:36:10.533Z,58.49
2023-06-17T01:38:42.566Z,58.57
2023-06-17T01:41:20.911Z,58.63
2023-06-17T01:43:48.370Z,58.58
2023-06-17T01:46:15.933Z,58.53
2023-06-17T01:48:43.904Z,58.62
2023-06-17T01:51:11.900Z,58.72
2023-06-17T01:53:39.453Z,58.65
2023-06-17T01:56:07.014Z,58.71
2023-06-17T01:58:34.498Z,58.65
2023-06-17T02:01:01.969Z,58.76
2023-06-17T02:03:29.868Z,58.76
2023-06-17T02:05:57.687Z,58.85
2023-06-17T02:08:25.347Z,58.81
2023-06-17T02:10:53.256Z,58.86
2023-06-17T02:13:21.163Z,58.98
2023-06-17T02:15:48.749Z,59.07
2023-06-17T02:18:16.325Z,59.20
2023-06-17T02:20:46.674Z,59.27
2023-06-17T02:23:14.236Z,59.26
2023-06-17T02:25:41.775Z,59.32
2023-06-17T02:28:09.391Z,59.28
2023-06-17T02:30:37.126Z,59.31
2023-06-17T02:33:05.200Z,59.40
2023-06-17T02:35:32.965Z,59.39
2023-06-17T02:38:00.852Z,59.37
2023-06-17T02:40:28.502Z,59.36
2023-06-17T02:42:56.398Z,59.30
2023-06-17T02:45:24.047Z,59.31
2023-06-17T02:47:52.155Z,59.22
2023-06-17T02:50:24.538Z,59.18
2023-06-17T02:52:57.353Z,59.15
2023-06-17T02:55:27.141Z,59.12
2023-06-17T02:57:55.185Z,59.09
2023-06-17T03:00:24.215Z,59.10
2023-06-17T03:02:52.245Z,59.00
2023-06-17T03:05:20.068Z,59.08
2023-06-17T03:07:48.137Z,59.08
2023-06-17T03:10:16.989Z,58.93
2023-06-17T03:12:47.443Z,58.85
2023-06-17T03:15:18.695Z,58.70
2023-06-17T03:17:47.269Z,58.67
2023-06-17T03:20:15.541Z,58.73
2023-06-17T03:22:43.214Z,58.75
2023-06-17T03:25:11.067Z,58.37
2023-06-17T03:27:39.074Z,58.31
2023-06-17T03:30:07.146Z,58.38
2023-06-17T03:32:34.661Z,58.29
2023-06-17T03:35:03.542Z,58.10
2023-06-17T03:37:31.319Z,57.93
2023-06-17T03:39:58.873Z,57.86
2023-06-17T03:42:27.718Z,57.86
2023-06-17T03:44:55.179Z,57.91
2023-06-17T03:47:22.692Z,57.88
2023-06-17T03:49:50.692Z,57.89
2023-06-17T03:52:18.278Z,57.72
2023-06-17T03:54:45.914Z,57.48
2023-06-17T03:57:13.822Z,57.24
2023-06-17T03:59:41.381Z,57.28
2023-06-17T04:02:09.004Z,57.34
2023-06-17T04:04:36.495Z,57.22
2023-06-17T04:07:04.236Z,57.18
2023-06-17T04:09:33.896Z,57.29
2023-06-17T04:12:03.322Z,57.22
2023-06-17T04:14:30.862Z,56.97
2023-06-17T04:17:00.620Z,56.62
2023-06-17T04:19:28.169Z,56.74
2023-06-17T04:21:55.812Z,56.48
2023-06-17T04:24:23.404Z,56.13
2023-06-17T04:26:54.034Z,55.73
2023-06-17T04:29:23.716Z,55.38
2023-06-17T04:31:51.184Z,55.30
2023-06-17T04:34:25.302Z,55.44
2023-06-17T04:36:58.621Z,54.68
2023-06-17T04:39:29.441Z,55.28
2023-06-17T04:41:57.666Z,55.21
2023-06-17T04:44:25.176Z,55.12
2023-06-17T04:46:53.151Z,54.90
2023-06-17T04:49:21.312Z,54.97
2023-06-17T04:51:49.850Z,54.98
2023-06-17T04:54:17.997Z,54.89
2023-06-17T04:56:45.662Z,54.91
2023-06-17T04:59:13.318Z,54.24
2023-06-17T05:01:41.243Z,54.10
2023-06-17T05:04:09.032Z,54.13
2023-06-17T05:06:37.250Z,54.12
2023-06-17T05:09:05.134Z,54.14
2023-06-17T05:11:33.017Z,54.01
2023-06-17T05:14:00.659Z,54.37
2023-06-17T05:16:28.247Z,54.12
2023-06-17T05:18:56.359Z,54.53
2023-06-17T05:21:24.144Z,54.57
2023-06-17T05:23:53.226Z,54.26
2023-06-17T05:26:21.245Z,54.06
2023-06-17T05:28:48.910Z,54.21
2023-06-17T05:31:17.202Z,54.27
2023-06-17T05:33:45.270Z,54.24
2023-06-17T05:36:12.937Z,54.09
2023-06-17T05:38:40.991Z,53.88
2023-06-17T05:41:08.426Z,53.78
2023-06-17T05:43:36.964Z,53.62
2023-06-17T05:46:04.520Z,53.46
2023-06-17T05:48:32.315Z,52.91
2023-06-17T05:50:59.784Z,52.69
2023-06-17T05:53:27.247Z,51.91
2023-06-17T05:55:55.398Z,51.81
2023-06-17T05:58:22.902Z,51.97
2023-06-17T06:00:59.267Z,51.62
2023-06-17T06:03:26.795Z,51.22
2023-06-17T06:05:54.368Z,51.40
2023-06-17T06:08:21.856Z,51.57
2023-06-17T06:10:49.480Z,51.63
2023-06-17T06:13:17.281Z,51.56
2023-06-17T06:15:44.850Z,51.29
2023-06-17T06:18:12.467Z,51.32
2023-06-17T06:20:39.936Z,51.10
2023-06-17T06:23:08.037Z,50.83
2023-06-17T06:25:35.894Z,50.67
2023-06-17T06:28:03.603Z,50.84
2023-06-17T06:30:31.095Z,50.82
2023-06-17T06:32:59.955Z,50.49
2023-06-17T06:35:27.623Z,50.74
2023-06-17T06:37:55.474Z,50.73
2023-06-17T06:40:24.495Z,50.80
2023-06-17T06:42:52.132Z,50.68
2023-06-17T06:45:27.341Z,51.12
2023-06-17T06:47:56.207Z,50.15
2023-06-17T06:50:24.192Z,50.30
2023-06-17T06:52:53.131Z,50.40
2023-06-17T06:55:20.941Z,50.78
2023-06-17T06:57:50.116Z,50.39
2023-06-17T07:00:18.693Z,50.12
2023-06-17T07:02:47.285Z,50.19
2023-06-17T07:05:15.232Z,50.54
2023-06-17T07:07:48.562Z,50.72
2023-06-17T07:10:16.029Z,50.60
2023-06-17T07:12:43.576Z,50.12
2023-06-17T07:15:11.410Z,49.67
2023-06-17T07:17:38.881Z,49.91
2023-06-17T07:20:07.147Z,49.77
2023-06-17T07:22:36.303Z,49.16
2023-06-17T07:25:04.355Z,48.61
2023-06-17T07:27:31.941Z,48.97
2023-06-17T07:29:59.377Z,48.27
2023-06-17T07:32:27.032Z,48.01
2023-06-17T07:34:58.287Z,47.89
2023-06-17T07:37:26.400Z,48.11
2023-06-17T07:39:54.159Z,48.06
2023-06-17T07:42:22.846Z,47.97
2023-06-17T07:44:50.317Z,48.24
2023-06-17T07:47:18.169Z,47.99
2023-06-17T07:49:45.748Z,48.30
2023-06-17T07:52:13.528Z,46.93
2023-06-17T07:54:42.325Z,47.45
2023-06-17T07:57:09.774Z,46.86
2023-06-17T07:59:37.347Z,46.52
2023-06-17T08:02:07.309Z,46.97
2023-06-17T08:04:37.149Z,47.46
2023-06-17T08:07:05.857Z,47.39
2023-06-17T08:09:33.632Z,47.64
2023-06-17T08:12:01.222Z,47.60
2023-06-17T08:14:28.696Z,47.44
2023-06-17T08:16:56.635Z,47.14
2023-06-17T08:19:24.133Z,46.89
2023-06-17T08:21:51.972Z,46.79
2023-06-17T08:24:19.989Z,47.12
2023-06-17T08:26:47.746Z,47.35
2023-06-17T08:29:16.378Z,47.49
2023-06-17T08:31:44.797Z,47.12
2023-06-17T08:34:12.974Z,47.28
2023-06-17T08:36:42.989Z,47.25
2023-06-17T08:39:11.167Z,47.75
2023-06-17T08:41:40.361Z,47.85
2023-06-17T08:44:09.397Z,47.50
2023-06-17T08:46:36.871Z,47.43
2023-06-17T08:49:04.409Z,46.99
2023-06-17T08:51:32.510Z,46.86
2023-06-17T08:54:00.157Z,46.95
2023-06-17T08:56:27.629Z,47.11
2023-06-17T08:58:58.139Z,47.37
2023-06-17T09:01:26.398Z,47.30
2023-06-17T09:03:55.416Z,47.92
2023-06-17T09:06:24.718Z,48.37
2023-06-17T09:08:52.966Z,48.39
2023-06-17T09:11:24.637Z,47.74
2023-06-17T09:13:53.041Z,47.84
2023-06-17T09:16:27.962Z,47.68
2023-06-17T09:18:58.875Z,47.84
2023-06-17T09:21:27.193Z,47.88
2023-06-17T09:23:59.206Z,47.15
2023-06-17T09:26:29.900Z,46.80
2023-06-17T09:29:02.763Z,46.83
2023-06-17T09:31:30.762Z,46.50
2023-06-17T09:33:59.148Z,46.57
2023-06-17T09:36:26.917Z,46.21
2023-06-17T09:38:54.406Z,46.71
2023-06-17T09:41:22.104Z,46.43
2023-06-17T09:43:53.380Z,46.21
2023-06-17T09:46:46.008Z,45.19
2023-06-17T09:49:16.860Z,44.72
2023-06-17T09:51:44.380Z,44.50
2023-06-17T09:54:11.994Z,44.32
2023-06-17T09:56:39.462Z,44.08
2023-06-17T09:59:09.890Z,43.80
2023-06-17T10:01:40.885Z,43.67
2023-06-17T10:04:08.934Z,43.82
2023-06-17T10:06:38.080Z,43.63
2023-06-17T10:09:07.889Z,43.14
2023-06-17T10:11:36.263Z,43.17
2023-06-17T10:14:08.412Z,43.46
2023-06-17T10:16:38.116Z,43.29
2023-06-17T10:19:07.328Z,43.05
2023-06-17T10:21:35.791Z,43.01
2023-06-17T10:24:03.379Z,42.80
2023-06-17T10:26:32.387Z,42.92
2023-06-17T10:29:07.982Z,42.70
2023-06-17T10:31:40.706Z,43.14
2023-06-17T10:34:21.233Z,42.91
2023-06-17T10:36:49.909Z,42.54
2023-06-17T10:39:17.496Z,42.49
2023-06-17T10:41:52.533Z,42.66
2023-06-17T10:44:41.269Z,42.73
2023-06-17T10:47:20.664Z,42.11
2023-06-17T10:49:52.177Z,42.08
2023-06-17T10:52:20.141Z,42.24
2023-06-17T10:54:56.957Z,42.23
2023-06-17T10:57:35.088Z,42.83
2023-06-17T11:00:08.314Z,42.10
2023-06-17T11:02:39.725Z,42.39
2023-06-17T11:05:08.133Z,41.90
2023-06-17T11:07:35.714Z,42.19
2023-06-17T11:10:03.979Z,42.30
2023-06-17T11:12:31.787Z,42.25
2023-06-17T11:15:01.617Z,42.49
2023-06-17T11:17:29.286Z,42.71
2023-06-17T11:19:56.905Z,42.82
2023-06-17T11:22:24.352Z,42.91
2023-06-17T11:24:51.950Z,42.68
2023-06-17T11:27:19.403Z,42.75
2023-06-17T11:29:47.210Z,42.60
2023-06-17T11:32:14.774Z,42.37
2023-06-17T11:34:42.250Z,42.40
2023-06-17T11:37:12.573Z,42.53
2023-06-17T11:39:40.359Z,42.39
2023-06-17T11:42:08.424Z,42.43
2023-06-17T11:44:36.374Z,42.41
2023-06-17T11:47:10.223Z,41.31
2023-06-17T11:49:41.714Z,41.00
2023-06-17T11:52:10.904Z,40.94
2023-06-17T11:54:50.319Z,41.19
2023-06-17T11:57:27.746Z,41.37
2023-06-17T12:00:06.333Z,41.68
2023-06-17T12:02:40.063Z,41.45
2023-06-17T12:05:08.243Z,41.56
2023-06-17T12:07:42.757Z,41.57
2023-06-17T12:10:12.300Z,41.96
2023-06-17T12:12:42.252Z,42.00
2023-06-17T12:15:16.542Z,42.22
2023-06-17T12:17:49.979Z,42.25
2023-06-17T12:20:19.783Z,42.44
2023-06-17T12:22:49.954Z,42.64
2023-06-17T12:25:17.571Z,42.69
2023-06-17T12:27:45.428Z,42.66
2023-06-17T12:30:13.476Z,42.94
2023-06-17T12:32:41.499Z,42.42
2023-06-17T12:35:12.766Z,42.00
2023-06-17T12:37:41.868Z,41.89
2023-06-17T12:40:10.563Z,42.04
2023-06-17T12:42:38.524Z,42.31
2023-06-17T12:45:07.488Z,42.12
2023-06-17T12:47:35.167Z,42.42
2023-06-17T12:50:02.818Z,42.13
2023-06-17T12:52:30.449Z,41.38
2023-06-17T12:55:02.012Z,41.28
2023-06-17T12:57:30.191Z,41.41
2023-06-17T12:59:57.758Z,41.65
2023-06-17T13:02:25.271Z,41.53
2023-06-17T13:04:52.982Z,41.86
2023-06-17T13:07:21.227Z,41.50
2023-06-17T13:09:48.748Z,41.10
2023-06-17T13:12:16.282Z,41.10
2023-06-17T13:14:43.730Z,41.21
2023-06-17T13:17:11.363Z,41.48
2023-06-17T13:19:39.188Z,41.89
2023-06-17T13:22:07.252Z,42.22
2023-06-17T13:24:34.871Z,42.21
2023-06-17T13:27:02.999Z,42.35
2023-06-17T13:29:30.673Z,42.75
2023-06-17T13:31:58.162Z,42.98
2023-06-17T13:34:27.129Z,43.00
2023-06-17T13:36:54.799Z,42.82
2023-06-17T13:39:22.363Z,42.82
2023-06-17T13:41:49.866Z,42.76
2023-06-17T13:44:17.703Z,43.07
2023-06-17T13:46:45.545Z,43.69
2023-06-17T13:49:13.159Z,44.03
2023-06-17T13:51:40.800Z,44.07
2023-06-17T13:54:08.286Z,44.23
2023-06-17T13:56:36.068Z,44.64
2023-06-17T13:59:04.101Z,44.62
2023-06-17T14:01:31.704Z,44.78
2023-06-17T14:03:59.673Z,45.06
2023-06-17T14:06:27.321Z,45.21
2023-06-17T14:08:55.112Z,45.19
2023-06-17T14:11:23.545Z,44.84
2023-06-17T14:13:51.154Z,45.01
2023-06-17T14:16:18.865Z,45.41
2023-06-17T14:18:46.402Z,44.31
2023-06-17T14:21:28.480Z,44.20
2023-06-17T14:24:04.101Z,44.42
2023-06-17T14:26:32.844Z,44.64
2023-06-17T14:29:00.509Z,44.75
2023-06-17T14:31:28.549Z,44.73
2023-06-17T14:33:56.234Z,44.42
2023-06-17T14:36:24.058Z,43.72
2023-06-17T14:38:51.766Z,43.23
2023-06-17T14:41:19.357Z,43.08
2023-06-17T14:43:47.496Z,42.45
2023-06-17T14:46:15.567Z,42.91
2023-06-17T14:48:43.141Z,43.10
2023-06-17T14:51:10.907Z,42.86
2023-06-17T14:53:41.671Z,42.60
2023-06-17T14:56:29.651Z,42.49
2023-06-17T14:59:01.457Z,42.27
2023-06-17T15:01:35.378Z,42.65
2023-06-17T15:04:03.946Z,43.13
2023-06-17T15:06:32.787Z,43.33
2023-06-17T15:09:26.931Z,43.32
2023-06-17T15:11:57.945Z,43.32
2023-06-17T15:14:29.913Z,43.69
2023-06-17T15:16:57.655Z,43.76
2023-06-17T15:19:25.116Z,43.35
2023-06-17T15:21:52.805Z,43.17
2023-06-17T15:24:20.835Z,43.32
2023-06-17T15:26:48.423Z,43.37
2023-06-17T15:29:16.863Z,43.06
2023-06-17T15:31:45.492Z,43.28
2023-06-17T15:34:13.066Z,43.17
2023-06-17T15:36:41.587Z,43.13
2023-06-17T15:39:19.410Z,43.30
2023-06-17T15:41:47.493Z,43.72
2023-06-17T15:44:16.120Z,43.82
2023-06-17T15:46:43.858Z,44.27
2023-06-17T15:49:11.581Z,43.98
2023-06-17T15:51:39.097Z,44.09
2023-06-17T15:54:06.716Z,44.14
2023-06-17T15:56:35.662Z,44.03
2023-06-17T15:59:03.651Z,44.29
2023-06-17T16:01:31.228Z,44.23
2023-06-17T16:03:58.837Z,44.35
2023-06-17T16:06:26.783Z,44.14
2023-06-17T16:08:54.611Z,43.89
2023-06-17T16:11:22.032Z,43.62
2023-06-17T16:13:49.585Z,43.79
2023-06-17T16:16:17.281Z,44.03
2023-06-17T16:18:44.844Z,44.18
2023-06-17T16:21:12.277Z,43.86
2023-06-17T16:23:39.720Z,44.06
2023-06-17T16:26:07.142Z,44.18
2023-06-17T16:28:34.583Z,44.16
2023-06-17T16:31:02.130Z,44.42
2023-06-17T16:33:29.621Z,44.50
2023-06-17T16:35:57.259Z,44.47
2023-06-17T16:38:24.737Z,44.59
2023-06-17T16:40:52.146Z,44.70
2023-06-17T16:43:19.566Z,44.98
2023-06-17T16:45:47.134Z,45.25
2023-06-17T16:48:14.958Z,45.19
2023-06-17T16:50:42.543Z,45.37
2023-06-17T16:53:10.110Z,45.51
2023-06-17T16:55:37.607Z,45.70
2023-06-17T16:58:05.133Z,45.61
2023-06-17T17:00:32.730Z,45.74
2023-06-17T17:03:00.415Z,46.03
2023-06-17T17:05:28.035Z,46.16
2023-06-17T17:07:55.594Z,46.27
2023-06-17T17:10:26.042Z,46.41
2023-06-17T17:12:53.499Z,46.56
2023-06-17T17:15:21.888Z,46.53
2023-06-17T17:17:49.666Z,46.47
2023-06-17T17:20:17.524Z,46.69
2023-06-17T17:22:45.169Z,46.81
2023-06-17T17:25:12.676Z,46.79
2023-06-17T17:27:40.275Z,47.07
2023-06-17T17:30:08.579Z,47.14
2023-06-17T17:32:37.134Z,47.29
2023-06-17T17:35:05.298Z,47.35
2023-06-17T17:37:32.819Z,47.51
2023-06-17T17:40:00.491Z,47.60
2023-06-17T17:42:29.280Z,47.73
2023-06-17T17:44:56.798Z,47.92
2023-06-17T17:47:24.336Z,47.97
2023-06-17T17:49:52.193Z,48.06
2023-06-17T17:52:19.777Z,48.19
2023-06-17T17:55:01.244Z,48.34
2023-06-17T17:57:30.261Z,48.53
2023-06-17T17:59:57.910Z,48.58
2023-06-17T18:02:26.116Z,48.71
2023-06-17T18:04:53.799Z,48.78
2023-06-17T18:07:21.478Z,48.81
2023-06-17T18:09:49.075Z,48.85
2023-06-17T18:12:17.022Z,48.92
2023-06-17T18:14:44.512Z,48.91
2023-06-17T18:17:12.006Z,49.06
2023-06-17T18:19:39.866Z,49.15
2023-06-17T18:22:07.420Z,49.18
2023-06-17T18:24:35.021Z,49.13
2023-06-17T18:27:02.644Z,49.34
2023-06-17T18:29:30.511Z,49.45
2023-06-17T18:31:58.077Z,49.46
2023-06-17T18:34:25.850Z,49.48
2023-06-17T18:36:53.829Z,49.54
2023-06-17T18:39:21.267Z,49.61
2023-06-17T18:41:48.949Z,49.81
2023-06-17T18:44:16.511Z,49.85
2023-06-17T18:46:44.219Z,50.03
2023-06-17T18:49:20.836Z,50.09
2023-06-17T18:51:49.400Z,50.19
2023-06-17T18:54:17.477Z,50.35
2023-06-17T18:56:45.025Z,50.48
2023-06-17T18:59:12.604Z,50.60
2023-06-17T19:01:40.540Z,50.78
2023-06-17T19:04:09.400Z,50.82
2023-06-17T19:06:38.209Z,50.99
2023-06-17T19:09:06.704Z,51.07
2023-06-17T19:11:34.410Z,51.10
2023-06-17T19:14:02.056Z,51.09
2023-06-17T19:16:29.737Z,51.15
2023-06-17T19:18:57.453Z,51.28
2023-06-17T19:21:25.035Z,51.31
2023-06-17T19:23:53.092Z,51.27
2023-06-17T19:26:20.980Z,51.46
2023-06-17T19:28:48.428Z,51.49
2023-06-17T19:31:16.228Z,51.64
2023-06-17T19:33:44.580Z,51.71
2023-06-17T19:36:12.062Z,51.67
2023-06-17T19:38:39.529Z,51.57
2023-06-17T19:41:07.187Z,51.50
2023-06-17T19:43:35.947Z,51.53
2023-06-17T19:46:03.485Z,51.50
2023-06-17T19:48:31.118Z,51.51
2023-06-17T19:51:02.019Z,51.31
2023-06-17T19:53:29.648Z,51.07
2023-06-17T19:55:57.104Z,50.91
2023-06-17T19:58:24.581Z,50.91
2023-06-17T20:00:51.987Z,50.80
2023-06-17T20:03:19.536Z,50.70
2023-06-17T20:05:47.367Z,50.63
2023-06-17T20:08:14.822Z,50.57
2023-06-17T20:10:42.625Z,50.58
2023-06-17T20:13:10.271Z,50.56
2023-06-17T20:15:38.252Z,50.51
2023-06-17T20:18:06.306Z,50.52
2023-06-17T20:20:33.887Z,50.49
2023-06-17T20:23:01.307Z,50.54
2023-06-17T20:25:29.656Z,50.49
2023-06-17T20:27:57.100Z,50.47
2023-06-17T20:30:24.745Z,50.50
2023-06-17T20:32:52.408Z,50.51
2023-06-17T20:35:19.910Z,50.50
2023-06-17T20:37:47.411Z,50.55
2023-06-17T20:40:14.880Z,50.54
2023-06-17T20:42:42.449Z,50.49
2023-06-17T20:45:11.022Z,50.43
2023-06-17T20:47:38.735Z,50.55
2023-06-17T20:50:07.304Z,50.57
2023-06-17T20:52:34.739Z,50.59
2023-06-17T20:55:02.347Z,50.49
2023-06-17T20:57:29.990Z,50.39
2023-06-17T20:59:57.754Z,50.27
2023-06-17T21:02:25.413Z,50.19
2023-06-17T21:04:53.029Z,49.95
2023-06-17T21:07:20.699Z,49.81
2023-06-17T21:09:48.639Z,49.73
2023-06-17T21:12:16.294Z,49.66
2023-06-17T21:14:43.896Z,49.50
2023-06-17T21:17:11.462Z,49.52
2023-06-17T21:19:38.893Z,49.58
2023-06-17T21:22:06.666Z,49.61
2023-06-17T21:24:34.255Z,49.67
2023-06-17T21:27:01.811Z,49.70
2023-06-17T21:29:29.297Z,49.81
2023-06-17T21:31:56.720Z,49.77
2023-06-17T21:34:24.196Z,49.83
2023-06-17T21:36:51.850Z,49.77
2023-06-17T21:39:19.409Z,49.69
2023-06-17T21:41:46.897Z,49.70
2023-06-17T21:44:14.651Z,49.72
2023-06-17T21:46:42.277Z,49.76
2023-06-17T21:49:09.767Z,49.77
2023-06-17T21:51:37.492Z,49.83
2023-06-17T21:54:05.035Z,49.89
2023-06-17T21:56:32.494Z,49.91
2023-06-17T21:58:59.952Z,50.01
2023-06-17T22:01:27.927Z,49.91
2023-06-17T22:03:55.778Z,49.95
2023-06-17T22:06:23.431Z,50.02
2023-06-17T22:08:50.911Z,50.02
2023-06-17T22:11:18.404Z,50.02
2023-06-17T22:13:46.027Z,50.09
2023-06-17T22:16:13.608Z,50.02
2023-06-17T22:18:41.558Z,50.08
2023-06-17T22:21:09.003Z,50.14
2023-06-17T22:23:36.566Z,50.29
2023-06-17T22:26:04.074Z,50.20
2023-06-17T22:28:31.489Z,50.28
2023-06-17T22:30:58.934Z,50.20
2023-06-17T22:33:26.426Z,50.25
2023-06-17T22:35:53.867Z,50.36
2023-06-17T22:38:21.570Z,50.39
2023-06-17T22:40:49.146Z,50.46
2023-06-17T22:43:17.124Z,50.37
2023-06-17T22:45:44.689Z,50.38
2023-06-17T22:48:12.288Z,50.22
2023-06-17T22:50:39.814Z,50.20
2023-06-17T22:53:07.263Z,50.34
2023-06-17T22:55:36.071Z,50.31
2023-06-17T22:58:03.982Z,50.25
2023-06-17T23:00:33.944Z,50.25
2023-06-17T23:03:01.627Z,50.13
2023-06-17T23:05:29.219Z,50.27
2023-06-17T23:07:56.753Z,50.21
2023-06-17T23:10:24.339Z,50.21
2023-06-17T23:12:52.195Z,50.29
2023-06-17T23:15:19.605Z,50.27
2023-06-17T23:17:47.109Z,50.38
2023-06-17T23:20:14.772Z,50.41
2023-06-17T23:22:42.287Z,50.31
2023-06-17T23:25:11.409Z,50.37
2023-06-17T23:27:38.906Z,50.44
2023-06-17T23:30:08.803Z,50.41
2023-06-17T23:32:36.946Z,50.45
2023-06-17T23:35:05.679Z,50.42
2023-06-17T23:37:34.334Z,50.38
2023-06-17T23:40:01.806Z,50.51
2023-06-17T23:42:29.251Z,50.64
2023-06-17T23:44:56.698Z,50.65
2023-06-17T23:47:24.490Z,50.78
2023-06-17T23:49:54.160Z,50.78
2023-06-17T23:52:21.830Z,50.90
2023-06-17T23:54:50.106Z,51.02
2023-06-17T23:57:17.679Z,51.09
2023-06-17T23:59:45.506Z,51.17
